GEC1KM LTFM-EDDF
Flight info
| Callsign | GEC1KM |
|---|---|
| Flight time | N/A |
| Altitude | 30000 |
| Route | TUDBU Q26 ETUBA DCT NAVOD DCT MOPUG DCT ARSIN DCT SUBEN DCT AKINI T161 DEBHI DEBHI1C |
| Aircraft | B77L/H-SDE1E2E3FGHIJ2J3J4J5M1RWXY/LB1D1 |
Departure
| Time | 2026-02-19 14:30 |
|---|---|
| Airport | İstanbul Airport (LTFM) |
Arrival
| Time | N/A |
|---|---|
| Airport | Frankfurt Main Airport (EDDF) |
| Time | Latitude | Longitude | Altitude | Speed | Heading |
|---|---|---|---|---|---|
| 2026-02-19 13:46 | 41.27696 | 28.71352 | 338 ft | 0 kts | 88° |
| 2026-02-19 14:15 | 41.27696 | 28.71351 | 335 ft | 1 kts | 88° |
| 2026-02-19 14:15 | 41.27696 | 28.71331 | 337 ft | 3 kts | 89° |
| 2026-02-19 14:15 | 41.27696 | 28.71304 | 335 ft | 3 kts | 91° |
| 2026-02-19 14:15 | 41.27696 | 28.71277 | 333 ft | 3 kts | 91° |
| 2026-02-19 14:16 | 41.27697 | 28.71250 | 333 ft | 3 kts | 91° |
| 2026-02-19 14:16 | 41.27694 | 28.71208 | 333 ft | 3 kts | 54° |
| 2026-02-19 14:16 | 41.27684 | 28.71195 | 333 ft | 3 kts | 19° |
| 2026-02-19 14:17 | 41.27666 | 28.71190 | 333 ft | 3 kts | 1° |
| 2026-02-19 14:17 | 41.27649 | 28.71190 | 333 ft | 1 kts | 359° |
| 2026-02-19 14:17 | 41.27643 | 28.71190 | 333 ft | 0 kts | 359° |
| 2026-02-19 14:22 | 41.27653 | 28.71190 | 338 ft | 4 kts | 359° |
| 2026-02-19 14:23 | 41.27702 | 28.71189 | 336 ft | 11 kts | 359° |
| 2026-02-19 14:23 | 41.27794 | 28.71187 | 338 ft | 15 kts | 359° |
| 2026-02-19 14:23 | 41.27912 | 28.71183 | 336 ft | 19 kts | 359° |
| 2026-02-19 14:23 | 41.28048 | 28.71180 | 334 ft | 21 kts | 359° |
| 2026-02-19 14:24 | 41.28196 | 28.71177 | 337 ft | 22 kts | 359° |
| 2026-02-19 14:24 | 41.28495 | 28.71170 | 336 ft | 22 kts | 359° |
| 2026-02-19 14:24 | 41.28646 | 28.71166 | 334 ft | 22 kts | 359° |
| 2026-02-19 14:25 | 41.28796 | 28.71163 | 334 ft | 22 kts | 359° |
| 2026-02-19 14:25 | 41.28946 | 28.71160 | 336 ft | 22 kts | 359° |
| 2026-02-19 14:25 | 41.29096 | 28.71156 | 334 ft | 22 kts | 359° |
| 2026-02-19 14:25 | 41.29246 | 28.71153 | 333 ft | 22 kts | 359° |
| 2026-02-19 14:26 | 41.29395 | 28.71149 | 336 ft | 22 kts | 359° |
| 2026-02-19 14:26 | 41.29543 | 28.71146 | 334 ft | 22 kts | 359° |
| 2026-02-19 14:26 | 41.29658 | 28.71205 | 333 ft | 19 kts | 70° |
| 2026-02-19 14:26 | 41.29666 | 28.71383 | 334 ft | 19 kts | 89° |
| 2026-02-19 14:27 | 41.29668 | 28.71563 | 338 ft | 19 kts | 88° |
| 2026-02-19 14:27 | 41.29671 | 28.71740 | 336 ft | 19 kts | 89° |
| 2026-02-19 14:27 | 41.29673 | 28.71920 | 335 ft | 19 kts | 89° |
| 2026-02-19 14:27 | 41.29675 | 28.72099 | 335 ft | 19 kts | 89° |
| 2026-02-19 14:28 | 41.29753 | 28.72212 | 335 ft | 20 kts | 4° |
| 2026-02-19 14:28 | 41.29839 | 28.72435 | 335 ft | 18 kts | 155° |
| 2026-02-19 14:28 | 41.29711 | 28.72445 | 323 ft | 20 kts | 179° |
| 2026-02-19 14:29 | 41.29480 | 28.72450 | 335 ft | 55 kts | 179° |
| 2026-02-19 14:29 | 41.28774 | 28.72464 | 335 ft | 147 kts | 178° |
| 2026-02-19 14:29 | 41.27469 | 28.72488 | 367 ft | 217 kts | 181° |
| 2026-02-19 14:29 | 41.25892 | 28.72518 | 902 ft | 244 kts | 180° |
| 2026-02-19 14:30 | 41.24181 | 28.72601 | 1291 ft | 244 kts | 179° |
| 2026-02-19 14:30 | 41.22495 | 28.72704 | 1934 ft | 241 kts | 180° |
| 2026-02-19 14:30 | 41.20863 | 28.72772 | 2704 ft | 232 kts | 188° |
| 2026-02-19 14:30 | 41.19425 | 28.72007 | 3434 ft | 218 kts | 225° |
| 2026-02-19 14:31 | 41.18513 | 28.70458 | 3999 ft | 217 kts | 238° |
| 2026-02-19 14:31 | 41.17987 | 28.68592 | 4537 ft | 221 kts | 268° |
| 2026-02-19 14:31 | 41.18044 | 28.66550 | 5207 ft | 223 kts | 270° |
| 2026-02-19 14:31 | 41.18055 | 28.64496 | 6034 ft | 222 kts | 269° |
| 2026-02-19 14:32 | 41.18042 | 28.62448 | 6707 ft | 227 kts | 269° |
| 2026-02-19 14:32 | 41.18189 | 28.58202 | 7937 ft | 238 kts | 291° |
| 2026-02-19 14:32 | 41.19142 | 28.56400 | 8639 ft | 243 kts | 320° |
| 2026-02-19 14:33 | 41.20671 | 28.55396 | 9396 ft | 252 kts | 346° |
| 2026-02-19 14:33 | 41.22437 | 28.55267 | 10007 ft | 262 kts | 355° |
| 2026-02-19 14:33 | 41.24337 | 28.55252 | 10385 ft | 279 kts | 355° |
| 2026-02-19 14:33 | 41.26361 | 28.55227 | 10593 ft | 304 kts | 355° |
| 2026-02-19 14:34 | 41.28004 | 28.55199 | 10754 ft | 323 kts | 355° |
| 2026-02-19 14:34 | 41.30309 | 28.55154 | 10960 ft | 348 kts | 355° |
| 2026-02-19 14:34 | 41.32795 | 28.55302 | 11423 ft | 366 kts | 2° |
| 2026-02-19 14:34 | 41.35357 | 28.55737 | 12119 ft | 375 kts | 4° |
| 2026-02-19 14:35 | 41.37966 | 28.56212 | 12927 ft | 380 kts | 3° |
| 2026-02-19 14:35 | 41.40609 | 28.56649 | 13783 ft | 384 kts | 2° |
| 2026-02-19 14:35 | 41.43289 | 28.57062 | 14545 ft | 388 kts | 1° |
| 2026-02-19 14:35 | 41.45987 | 28.57293 | 15318 ft | 388 kts | 355° |
| 2026-02-19 14:36 | 41.48698 | 28.57238 | 16105 ft | 389 kts | 353° |
| 2026-02-19 14:36 | 41.54143 | 28.56976 | 17572 ft | 398 kts | 353° |
| 2026-02-19 14:36 | 41.56915 | 28.56878 | 18304 ft | 402 kts | 353° |
| 2026-02-19 14:37 | 41.59735 | 28.56803 | 18963 ft | 406 kts | 354° |
| 2026-02-19 14:37 | 41.62581 | 28.56744 | 19568 ft | 409 kts | 354° |
| 2026-02-19 14:37 | 41.65434 | 28.56687 | 20170 ft | 413 kts | 354° |
| 2026-02-19 14:37 | 41.68309 | 28.56596 | 20756 ft | 411 kts | 350° |
| 2026-02-19 14:38 | 41.71068 | 28.55692 | 21116 ft | 408 kts | 330° |
| 2026-02-19 14:38 | 41.73398 | 28.53620 | 21720 ft | 402 kts | 314° |
| 2026-02-19 14:38 | 41.75163 | 28.50813 | 22379 ft | 398 kts | 301° |
| 2026-02-19 14:38 | 41.76438 | 28.47512 | 22981 ft | 400 kts | 289° |
| 2026-02-19 14:39 | 41.77006 | 28.43832 | 23512 ft | 403 kts | 274° |
| 2026-02-19 14:39 | 41.77122 | 28.40102 | 24022 ft | 407 kts | 273° |
| 2026-02-19 14:39 | 41.77266 | 28.36296 | 24533 ft | 409 kts | 274° |
| 2026-02-19 14:39 | 41.77451 | 28.32478 | 25067 ft | 411 kts | 275° |
| 2026-02-19 14:40 | 41.77657 | 28.28643 | 25586 ft | 413 kts | 275° |
| 2026-02-19 14:40 | 41.78144 | 28.20928 | 26517 ft | 416 kts | 281° |
| 2026-02-19 14:40 | 41.79004 | 28.17247 | 26888 ft | 421 kts | 294° |
| 2026-02-19 14:41 | 41.80508 | 28.13861 | 27301 ft | 424 kts | 301° |
| 2026-02-19 14:41 | 41.82087 | 28.10516 | 27741 ft | 426 kts | 300° |
| 2026-02-19 14:41 | 41.83642 | 28.07100 | 28241 ft | 428 kts | 299° |
| 2026-02-19 14:41 | 41.85172 | 28.03670 | 28705 ft | 429 kts | 299° |
| 2026-02-19 14:42 | 41.86705 | 28.00213 | 29144 ft | 431 kts | 299° |
| 2026-02-19 14:42 | 41.88223 | 27.96796 | 29545 ft | 433 kts | 299° |
| 2026-02-19 14:42 | 41.89777 | 27.93304 | 29929 ft | 436 kts | 299° |
| 2026-02-19 14:42 | 41.91338 | 27.89794 | 30115 ft | 441 kts | 299° |
| 2026-02-19 14:43 | 41.94489 | 27.82697 | 30138 ft | 438 kts | 298° |
| 2026-02-19 14:43 | 41.97776 | 27.75906 | 30136 ft | 438 kts | 308° |
| 2026-02-19 14:44 | 42.04246 | 27.67167 | 30144 ft | 440 kts | 312° |
| 2026-02-19 14:45 | 42.08594 | 27.61367 | 30141 ft | 440 kts | 311° |
| 2026-02-19 14:45 | 42.12904 | 27.55493 | 30139 ft | 440 kts | 311° |
| 2026-02-19 14:46 | 42.17193 | 27.49585 | 30134 ft | 441 kts | 310° |
| 2026-02-19 14:46 | 42.21454 | 27.43696 | 30132 ft | 441 kts | 310° |
| 2026-02-19 14:47 | 42.25738 | 27.37765 | 30129 ft | 440 kts | 310° |
| 2026-02-19 14:47 | 42.29983 | 27.31879 | 30126 ft | 440 kts | 310° |
| 2026-02-19 14:48 | 42.34251 | 27.25949 | 30124 ft | 439 kts | 310° |
| 2026-02-19 14:48 | 42.40641 | 27.17048 | 30120 ft | 438 kts | 310° |
| 2026-02-19 14:49 | 42.44862 | 27.11153 | 30127 ft | 438 kts | 310° |
| 2026-02-19 14:49 | 42.49115 | 27.05200 | 30127 ft | 438 kts | 310° |
| 2026-02-19 14:50 | 42.53329 | 26.99290 | 30109 ft | 438 kts | 310° |
| 2026-02-19 14:50 | 42.57566 | 26.93335 | 30110 ft | 438 kts | 310° |
| 2026-02-19 14:51 | 42.61799 | 26.87373 | 30108 ft | 438 kts | 310° |
| 2026-02-19 14:51 | 42.66005 | 26.81436 | 30110 ft | 438 kts | 310° |
| 2026-02-19 14:52 | 42.72327 | 26.72491 | 30107 ft | 437 kts | 309° |
| 2026-02-19 14:53 | 42.76539 | 26.66516 | 30091 ft | 437 kts | 309° |
| 2026-02-19 14:53 | 42.80707 | 26.60480 | 30098 ft | 435 kts | 307° |
| 2026-02-19 14:54 | 42.84210 | 26.53846 | 30091 ft | 431 kts | 300° |
| 2026-02-19 14:54 | 42.87460 | 26.46964 | 30087 ft | 432 kts | 300° |
| 2026-02-19 14:55 | 42.90724 | 26.40075 | 30098 ft | 432 kts | 300° |
| 2026-02-19 14:55 | 42.93995 | 26.33182 | 30078 ft | 432 kts | 300° |
| 2026-02-19 14:56 | 42.97264 | 26.26283 | 30073 ft | 433 kts | 300° |
| 2026-02-19 14:56 | 43.02153 | 26.15942 | 30064 ft | 433 kts | 300° |
| 2026-02-19 14:57 | 43.05415 | 26.09020 | 30048 ft | 434 kts | 300° |
| 2026-02-19 14:57 | 43.08687 | 26.02063 | 30058 ft | 433 kts | 300° |
| 2026-02-19 14:58 | 43.11924 | 25.95163 | 30044 ft | 434 kts | 300° |
| 2026-02-19 14:58 | 43.15184 | 25.88196 | 30045 ft | 434 kts | 300° |
| 2026-02-19 14:59 | 43.18444 | 25.81213 | 30051 ft | 434 kts | 299° |
| 2026-02-19 14:59 | 43.21696 | 25.74230 | 30055 ft | 434 kts | 299° |
| 2026-02-19 15:00 | 43.26550 | 25.63778 | 30044 ft | 435 kts | 299° |
| 2026-02-19 15:01 | 43.29794 | 25.56773 | 30042 ft | 435 kts | 299° |
| 2026-02-19 15:01 | 43.33036 | 25.49754 | 30030 ft | 435 kts | 299° |
| 2026-02-19 15:02 | 43.35736 | 25.43894 | 30029 ft | 435 kts | 299° |
| 2026-02-19 15:02 | 43.38972 | 25.36858 | 30028 ft | 436 kts | 299° |
| 2026-02-19 15:03 | 43.42213 | 25.29794 | 30017 ft | 437 kts | 299° |
| 2026-02-19 15:03 | 43.45455 | 25.22709 | 30014 ft | 437 kts | 299° |
| 2026-02-19 15:04 | 43.48676 | 25.15654 | 30017 ft | 438 kts | 298° |
| 2026-02-19 15:04 | 43.53537 | 25.04975 | 30016 ft | 438 kts | 298° |
| 2026-02-19 15:05 | 43.56756 | 24.97881 | 30016 ft | 439 kts | 298° |
| 2026-02-19 15:05 | 43.59990 | 24.90738 | 30020 ft | 439 kts | 298° |
| 2026-02-19 15:06 | 43.63218 | 24.83588 | 30009 ft | 439 kts | 298° |
| 2026-02-19 15:06 | 43.66447 | 24.76420 | 30013 ft | 438 kts | 298° |
| 2026-02-19 15:07 | 43.69660 | 24.69268 | 30006 ft | 438 kts | 298° |
| 2026-02-19 15:07 | 43.72850 | 24.62153 | 30014 ft | 437 kts | 298° |
| 2026-02-19 15:08 | 43.78252 | 24.51905 | 30007 ft | 443 kts | 308° |
| 2026-02-19 15:09 | 43.82453 | 24.45669 | 29992 ft | 442 kts | 308° |
| 2026-02-19 15:09 | 43.86646 | 24.39425 | 30001 ft | 442 kts | 308° |
| 2026-02-19 15:10 | 43.90790 | 24.33207 | 30018 ft | 442 kts | 308° |
| 2026-02-19 15:10 | 43.94958 | 24.26923 | 30008 ft | 442 kts | 308° |
| 2026-02-19 15:11 | 43.99109 | 24.20646 | 30007 ft | 441 kts | 308° |
| 2026-02-19 15:11 | 44.03273 | 24.14335 | 30012 ft | 441 kts | 308° |
| 2026-02-19 15:12 | 44.07406 | 24.08058 | 30015 ft | 442 kts | 308° |
| 2026-02-19 15:12 | 44.13631 | 23.98579 | 30016 ft | 442 kts | 308° |
| 2026-02-19 15:13 | 44.17750 | 23.92289 | 30019 ft | 442 kts | 307° |
| 2026-02-19 15:13 | 44.21890 | 23.85951 | 30022 ft | 442 kts | 307° |
| 2026-02-19 15:14 | 44.26033 | 23.79597 | 30023 ft | 442 kts | 307° |
| 2026-02-19 15:14 | 44.30166 | 23.73243 | 30016 ft | 442 kts | 307° |
| 2026-02-19 15:15 | 44.34293 | 23.66884 | 30019 ft | 442 kts | 307° |
| 2026-02-19 15:15 | 44.38415 | 23.60515 | 30017 ft | 442 kts | 307° |
| 2026-02-19 15:16 | 44.44591 | 23.50951 | 30009 ft | 442 kts | 307° |
| 2026-02-19 15:17 | 44.48691 | 23.44583 | 30013 ft | 442 kts | 307° |
| 2026-02-19 15:17 | 44.52747 | 23.38275 | 29995 ft | 434 kts | 307° |
| 2026-02-19 15:18 | 44.56762 | 23.32013 | 30000 ft | 429 kts | 306° |
| 2026-02-19 15:18 | 44.60735 | 23.25800 | 30007 ft | 425 kts | 306° |
| 2026-02-19 15:19 | 44.64673 | 23.19625 | 30013 ft | 423 kts | 306° |
| 2026-02-19 15:19 | 44.68591 | 23.13469 | 30005 ft | 421 kts | 306° |
| 2026-02-19 15:20 | 44.72470 | 23.07363 | 30022 ft | 420 kts | 306° |
| 2026-02-19 15:20 | 44.76389 | 23.01173 | 30032 ft | 431 kts | 306° |
| 2026-02-19 15:20 | 44.78403 | 22.97979 | 30026 ft | 442 kts | 306° |
| 2026-02-19 15:21 | 44.82525 | 22.91452 | 30017 ft | 444 kts | 306° |
| 2026-02-19 15:21 | 44.86587 | 22.85023 | 30013 ft | 440 kts | 306° |
| 2026-02-19 15:22 | 44.92658 | 22.75372 | 30011 ft | 437 kts | 305° |
| 2026-02-19 15:23 | 44.96689 | 22.68937 | 30016 ft | 436 kts | 305° |
| 2026-02-19 15:23 | 45.00708 | 22.62507 | 30015 ft | 437 kts | 305° |
| 2026-02-19 15:24 | 45.08739 | 22.49617 | 30001 ft | 438 kts | 305° |
| 2026-02-19 15:25 | 45.12769 | 22.43124 | 29974 ft | 438 kts | 305° |
| 2026-02-19 15:25 | 45.16782 | 22.36648 | 29976 ft | 436 kts | 305° |
| 2026-02-19 15:26 | 45.20761 | 22.30213 | 29948 ft | 435 kts | 304° |
| 2026-02-19 15:26 | 45.24726 | 22.23783 | 29940 ft | 434 kts | 304° |
| 2026-02-19 15:27 | 45.31524 | 22.12722 | 29933 ft | 433 kts | 304° |
| 2026-02-19 15:27 | 45.39407 | 21.99841 | 29906 ft | 434 kts | 304° |
| 2026-02-19 15:28 | 45.47328 | 21.86839 | 29888 ft | 435 kts | 304° |
| 2026-02-19 15:28 | 45.59227 | 21.67193 | 29872 ft | 436 kts | 304° |
| 2026-02-19 15:29 | 45.67125 | 21.54076 | 29869 ft | 437 kts | 304° |
| 2026-02-19 15:30 | 45.78952 | 21.34316 | 29874 ft | 437 kts | 303° |
| 2026-02-19 15:30 | 45.86840 | 21.21059 | 29858 ft | 436 kts | 303° |
| 2026-02-19 15:31 | 45.94696 | 21.07791 | 29846 ft | 436 kts | 303° |
| 2026-02-19 15:31 | 46.06409 | 20.87892 | 29841 ft | 435 kts | 303° |
| 2026-02-19 15:32 | 46.17696 | 20.67553 | 29825 ft | 425 kts | 293° |
| 2026-02-19 15:33 | 46.26152 | 20.45133 | 29832 ft | 424 kts | 292° |
| 2026-02-19 15:33 | 46.31811 | 20.30123 | 29819 ft | 426 kts | 292° |
| 2026-02-19 15:34 | 46.40276 | 20.07520 | 29816 ft | 429 kts | 292° |
| 2026-02-19 15:35 | 46.45958 | 19.92238 | 29821 ft | 430 kts | 292° |
| 2026-02-19 15:35 | 46.51645 | 19.76857 | 29817 ft | 432 kts | 292° |
| 2026-02-19 15:36 | 46.57304 | 19.61466 | 29819 ft | 433 kts | 292° |
| 2026-02-19 15:36 | 46.65762 | 19.38297 | 29820 ft | 433 kts | 292° |
| 2026-02-19 15:37 | 46.71389 | 19.22767 | 29810 ft | 434 kts | 291° |
| 2026-02-19 15:37 | 46.77010 | 19.07165 | 29805 ft | 434 kts | 292° |
| 2026-02-19 15:38 | 46.82611 | 18.91527 | 29793 ft | 434 kts | 292° |
| 2026-02-19 15:38 | 46.88193 | 18.75850 | 29797 ft | 435 kts | 292° |
| 2026-02-19 15:39 | 46.93729 | 18.60211 | 29811 ft | 436 kts | 291° |
| 2026-02-19 15:39 | 46.99289 | 18.44407 | 29795 ft | 437 kts | 291° |
| 2026-02-19 15:40 | 47.07623 | 18.20543 | 29801 ft | 439 kts | 291° |
| 2026-02-19 15:41 | 47.15933 | 17.96531 | 29792 ft | 441 kts | 291° |
| 2026-02-19 15:41 | 47.21469 | 17.80412 | 29779 ft | 441 kts | 291° |
| 2026-02-19 15:42 | 47.26986 | 17.64244 | 29784 ft | 441 kts | 291° |
| 2026-02-19 15:42 | 47.32478 | 17.48051 | 29777 ft | 442 kts | 292° |
| 2026-02-19 15:43 | 47.37940 | 17.31847 | 29782 ft | 444 kts | 292° |
| 2026-02-19 15:43 | 47.43423 | 17.15478 | 29781 ft | 446 kts | 292° |
| 2026-02-19 15:44 | 47.51679 | 16.90629 | 29790 ft | 450 kts | 292° |
| 2026-02-19 15:45 | 47.57093 | 16.74068 | 29792 ft | 451 kts | 290° |
| 2026-02-19 15:45 | 47.66427 | 16.39570 | 29823 ft | 456 kts | 289° |
| 2026-02-19 15:46 | 47.75856 | 16.04336 | 29751 ft | 460 kts | 289° |
| 2026-02-19 15:46 | 47.85183 | 15.68938 | 29745 ft | 460 kts | 288° |
| 2026-02-19 15:47 | 47.94459 | 15.33182 | 29733 ft | 462 kts | 288° |
| 2026-02-19 15:47 | 48.03650 | 14.97200 | 29723 ft | 465 kts | 287° |
| 2026-02-19 15:48 | 48.12715 | 14.61138 | 29703 ft | 468 kts | 287° |
| 2026-02-19 15:48 | 48.26348 | 14.05792 | 29691 ft | 472 kts | 286° |